sensor_id;sensor_type;location;lat;lon;timestamp;temperature;humidity
7576;DHT22;3829;50.798;4.358;2022-12-18T00:01:48;-2.40;99.90
7576;DHT22;3829;50.798;4.358;2022-12-18T00:04:20;-2.60;99.90
7576;DHT22;3829;50.798;4.358;2022-12-18T00:06:46;-2.60;99.90
7576;DHT22;3829;50.798;4.358;2022-12-18T00:09:12;-2.60;99.90
7576;DHT22;3829;50.798;4.358;2022-12-18T00:11:37;-2.60;99.90
7576;DHT22;3829;50.798;4.358;2022-12-18T00:14:03;-2.70;99.90
7576;DHT22;3829;50.798;4.358;2022-12-18T00:16:29;-2.70;99.90
7576;DHT22;3829;50.798;4.358;2022-12-18T00:18:57;-2.70;99.90
7576;DHT22;3829;50.798;4.358;2022-12-18T00:21:26;-2.60;99.90
7576;DHT22;3829;50.798;4.358;2022-12-18T00:23:52;-2.70;99.90
7576;DHT22;3829;50.798;4.358;2022-12-18T00:26:21;-2.70;99.90
7576;DHT22;3829;50.798;4.358;2022-12-18T00:28:48;-2.70;99.90
7576;DHT22;3829;50.798;4.358;2022-12-18T00:31:16;-2.70;99.90
7576;DHT22;3829;50.798;4.358;2022-12-18T00:33:42;-2.70;99.90
7576;DHT22;3829;50.798;4.358;2022-12-18T00:36:12;-2.70;99.90
7576;DHT22;3829;50.798;4.358;2022-12-18T00:38:39;-2.70;99.90
7576;DHT22;3829;50.798;4.358;2022-12-18T00:41:05;-2.80;99.90
7576;DHT22;3829;50.798;4.358;2022-12-18T00:43:31;-2.80;99.90
7576;DHT22;3829;50.798;4.358;2022-12-18T00:45:59;-2.80;99.90
7576;DHT22;3829;50.798;4.358;2022-12-18T00:48:25;-2.80;99.90
7576;DHT22;3829;50.798;4.358;2022-12-18T00:50:51;-2.80;99.90
7576;DHT22;3829;50.798;4.358;2022-12-18T00:53:17;-2.80;99.90
7576;DHT22;3829;50.798;4.358;2022-12-18T00:55:43;-2.80;99.90
7576;DHT22;3829;50.798;4.358;2022-12-18T00:58:10;-2.80;99.90
7576;DHT22;3829;50.798;4.358;2022-12-18T01:00:36;-2.80;99.90
7576;DHT22;3829;50.798;4.358;2022-12-18T01:03:02;-2.80;99.90
7576;DHT22;3829;50.798;4.358;2022-12-18T01:05:28;-2.70;99.90
7576;DHT22;3829;50.798;4.358;2022-12-18T01:07:55;-2.60;99.90
7576;DHT22;3829;50.798;4.358;2022-12-18T01:10:22;-2.60;99.90
7576;DHT22;3829;50.798;4.358;2022-12-18T01:12:47;-2.60;99.90
7576;DHT22;3829;50.798;4.358;2022-12-18T01:15:15;-2.60;99.90
7576;DHT22;3829;50.798;4.358;2022-12-18T01:17:41;-2.50;99.90
7576;DHT22;3829;50.798;4.358;2022-12-18T01:20:07;-2.50;99.90
7576;DHT22;3829;50.798;4.358;2022-12-18T01:22:34;-2.60;99.90
7576;DHT22;3829;50.798;4.358;2022-12-18T01:25:00;-2.60;99.90
7576;DHT22;3829;50.798;4.358;2022-12-18T01:27:25;-2.60;99.90
7576;DHT22;3829;50.798;4.358;2022-12-18T01:29:51;-2.50;99.90
7576;DHT22;3829;50.798;4.358;2022-12-18T01:32:17;-2.50;99.90
7576;DHT22;3829;50.798;4.358;2022-12-18T01:34:42;-2.50;99.90
7576;DHT22;3829;50.798;4.358;2022-12-18T01:37:08;-2.40;99.90
7576;DHT22;3829;50.798;4.358;2022-12-18T01:39:34;-2.50;99.90
7576;DHT22;3829;50.798;4.358;2022-12-18T01:42:02;-2.50;99.90
7576;DHT22;3829;50.798;4.358;2022-12-18T01:47:28;-2.60;99.90
7576;DHT22;3829;50.798;4.358;2022-12-18T01:49:57;-2.80;99.90
7576;DHT22;3829;50.798;4.358;2022-12-18T01:52:25;-2.60;99.90
7576;DHT22;3829;50.798;4.358;2022-12-18T01:54:52;-2.60;99.90
7576;DHT22;3829;50.798;4.358;2022-12-18T01:57:18;-2.60;99.90
7576;DHT22;3829;50.798;4.358;2022-12-18T01:59:49;-2.70;99.90
7576;DHT22;3829;50.798;4.358;2022-12-18T02:02:16;-2.70;99.90
7576;DHT22;3829;50.798;4.358;2022-12-18T02:04:42;-2.80;99.90
7576;DHT22;3829;50.798;4.358;2022-12-18T02:07:23;-2.90;99.90
7576;DHT22;3829;50.798;4.358;2022-12-18T02:10:05;-2.70;99.90
7576;DHT22;3829;50.798;4.358;2022-12-18T02:18:02;-3.00;99.90
7576;DHT22;3829;50.798;4.358;2022-12-18T02:20:36;-3.00;99.90
7576;DHT22;3829;50.798;4.358;2022-12-18T02:28:58;-2.90;99.90
7576;DHT22;3829;50.798;4.358;2022-12-18T02:31:29;-2.80;99.90
7576;DHT22;3829;50.798;4.358;2022-12-18T02:33:56;-3.10;99.90
7576;DHT22;3829;50.798;4.358;2022-12-18T02:36:24;-3.10;99.90
7576;DHT22;3829;50.798;4.358;2022-12-18T02:38:52;-3.00;99.90
7576;DHT22;3829;50.798;4.358;2022-12-18T02:41:18;-2.90;99.90
7576;DHT22;3829;50.798;4.358;2022-12-18T02:43:48;-3.00;99.90
7576;DHT22;3829;50.798;4.358;2022-12-18T02:48:56;-3.20;99.90
7576;DHT22;3829;50.798;4.358;2022-12-18T02:51:40;-3.30;99.90
7576;DHT22;3829;50.798;4.358;2022-12-18T02:54:18;-3.10;99.90
7576;DHT22;3829;50.798;4.358;2022-12-18T02:56:51;-3.10;99.90
7576;DHT22;3829;50.798;4.358;2022-12-18T02:59:30;-3.20;99.90
7576;DHT22;3829;50.798;4.358;2022-12-18T03:04:48;-3.30;99.90
7576;DHT22;3829;50.798;4.358;2022-12-18T03:07:19;-3.40;99.90
7576;DHT22;3829;50.798;4.358;2022-12-18T03:09:49;-3.50;99.90
7576;DHT22;3829;50.798;4.358;2022-12-18T03:12:22;-3.60;99.90
7576;DHT22;3829;50.798;4.358;2022-12-18T03:14:57;-3.40;99.90
7576;DHT22;3829;50.798;4.358;2022-12-18T03:17:27;-3.40;99.90
7576;DHT22;3829;50.798;4.358;2022-12-18T03:19:54;-3.50;99.90
7576;DHT22;3829;50.798;4.358;2022-12-18T03:22:23;-3.50;99.90
7576;DHT22;3829;50.798;4.358;2022-12-18T03:24:49;-3.50;99.90
7576;DHT22;3829;50.798;4.358;2022-12-18T03:27:18;-3.50;99.90
7576;DHT22;3829;50.798;4.358;2022-12-18T03:30:04;-3.40;99.90
7576;DHT22;3829;50.798;4.358;2022-12-18T03:32:58;-3.50;99.90
7576;DHT22;3829;50.798;4.358;2022-12-18T03:35:29;-3.40;99.90
7576;DHT22;3829;50.798;4.358;2022-12-18T03:37:55;-3.40;99.90
7576;DHT22;3829;50.798;4.358;2022-12-18T03:40:29;-3.50;99.90
7576;DHT22;3829;50.798;4.358;2022-12-18T03:43:08;-3.40;99.90
7576;DHT22;3829;50.798;4.358;2022-12-18T03:45:42;-3.50;99.90
7576;DHT22;3829;50.798;4.358;2022-12-18T03:51:28;-3.70;99.90
7576;DHT22;3829;50.798;4.358;2022-12-18T03:53:59;-3.60;99.90
7576;DHT22;3829;50.798;4.358;2022-12-18T03:56:29;-3.60;99.90
7576;DHT22;3829;50.798;4.358;2022-12-18T03:58:56;-3.70;99.90
7576;DHT22;3829;50.798;4.358;2022-12-18T04:01:28;-3.70;99.90
7576;DHT22;3829;50.798;4.358;2022-12-18T04:03:57;-3.60;99.90
7576;DHT22;3829;50.798;4.358;2022-12-18T04:06:25;-3.60;99.90
7576;DHT22;3829;50.798;4.358;2022-12-18T04:08:51;-3.60;99.90
7576;DHT22;3829;50.798;4.358;2022-12-18T04:11:17;-3.80;99.90
7576;DHT22;3829;50.798;4.358;2022-12-18T04:13:42;-3.80;99.90
7576;DHT22;3829;50.798;4.358;2022-12-18T04:16:09;-3.70;99.90
7576;DHT22;3829;50.798;4.358;2022-12-18T04:18:36;-3.70;99.90
7576;DHT22;3829;50.798;4.358;2022-12-18T04:21:02;-3.80;99.90
7576;DHT22;3829;50.798;4.358;2022-12-18T04:23:28;-3.70;99.90
7576;DHT22;3829;50.798;4.358;2022-12-18T04:25:54;-3.70;99.90
7576;DHT22;3829;50.798;4.358;2022-12-18T04:28:19;-3.80;99.90
7576;DHT22;3829;50.798;4.358;2022-12-18T04:30:45;-3.80;99.90
7576;DHT22;3829;50.798;4.358;2022-12-18T04:33:16;-3.80;99.90
7576;DHT22;3829;50.798;4.358;2022-12-18T04:35:42;-3.80;99.90
7576;DHT22;3829;50.798;4.358;2022-12-18T04:38:08;-3.80;99.90
7576;DHT22;3829;50.798;4.358;2022-12-18T04:40:36;-3.70;99.90
7576;DHT22;3829;50.798;4.358;2022-12-18T04:43:02;-3.70;99.90
7576;DHT22;3829;50.798;4.358;2022-12-18T04:45:29;-3.60;99.90
7576;DHT22;3829;50.798;4.358;2022-12-18T04:47:57;-3.70;99.90
7576;DHT22;3829;50.798;4.358;2022-12-18T04:50:23;-3.70;99.90
7576;DHT22;3829;50.798;4.358;2022-12-18T04:52:48;-3.70;99.90
7576;DHT22;3829;50.798;4.358;2022-12-18T04:55:14;-3.70;99.90
7576;DHT22;3829;50.798;4.358;2022-12-18T04:57:39;-3.80;99.90
7576;DHT22;3829;50.798;4.358;2022-12-18T05:00:06;-3.80;99.90
7576;DHT22;3829;50.798;4.358;2022-12-18T05:02:32;-3.80;99.90
7576;DHT22;3829;50.798;4.358;2022-12-18T05:04:57;-3.80;99.90
7576;DHT22;3829;50.798;4.358;2022-12-18T05:07:23;-3.90;99.90
7576;DHT22;3829;50.798;4.358;2022-12-18T05:09:48;-3.90;99.90
7576;DHT22;3829;50.798;4.358;2022-12-18T05:12:14;-4.00;99.90
7576;DHT22;3829;50.798;4.358;2022-12-18T05:14:39;-4.00;99.90
7576;DHT22;3829;50.798;4.358;2022-12-18T05:17:05;-3.90;99.90
7576;DHT22;3829;50.798;4.358;2022-12-18T05:19:31;-3.90;99.90
7576;DHT22;3829;50.798;4.358;2022-12-18T05:21:56;-3.90;99.90
7576;DHT22;3829;50.798;4.358;2022-12-18T05:24:22;-4.00;99.90
7576;DHT22;3829;50.798;4.358;2022-12-18T05:26:48;-4.10;99.90
7576;DHT22;3829;50.798;4.358;2022-12-18T05:29:14;-4.10;99.90
7576;DHT22;3829;50.798;4.358;2022-12-18T05:31:40;-4.00;99.90
7576;DHT22;3829;50.798;4.358;2022-12-18T05:34:06;-3.90;99.90
7576;DHT22;3829;50.798;4.358;2022-12-18T05:36:32;-3.80;99.90
7576;DHT22;3829;50.798;4.358;2022-12-18T05:38:57;-3.80;99.90
7576;DHT22;3829;50.798;4.358;2022-12-18T05:41:23;-3.80;99.90
7576;DHT22;3829;50.798;4.358;2022-12-18T05:43:49;-3.80;99.90
7576;DHT22;3829;50.798;4.358;2022-12-18T05:46:16;-3.90;99.90
7576;DHT22;3829;50.798;4.358;2022-12-18T05:48:43;-3.80;99.90
7576;DHT22;3829;50.798;4.358;2022-12-18T05:51:11;-3.70;99.90
7576;DHT22;3829;50.798;4.358;2022-12-18T05:53:38;-3.60;99.90
7576;DHT22;3829;50.798;4.358;2022-12-18T05:56:05;-3.50;99.90
7576;DHT22;3829;50.798;4.358;2022-12-18T05:58:33;-3.60;99.90
7576;DHT22;3829;50.798;4.358;2022-12-18T06:01:16;-3.60;99.90
7576;DHT22;3829;50.798;4.358;2022-12-18T06:03:42;-3.50;99.90
7576;DHT22;3829;50.798;4.358;2022-12-18T06:08:39;-3.60;99.90
7576;DHT22;3829;50.798;4.358;2022-12-18T06:11:05;-3.50;99.90
7576;DHT22;3829;50.798;4.358;2022-12-18T06:13:31;-3.40;99.90
7576;DHT22;3829;50.798;4.358;2022-12-18T06:15:56;-3.50;99.90
7576;DHT22;3829;50.798;4.358;2022-12-18T06:18:22;-3.60;99.90
7576;DHT22;3829;50.798;4.358;2022-12-18T06:20:55;-3.60;99.90
7576;DHT22;3829;50.798;4.358;2022-12-18T06:23:21;-3.60;99.90
7576;DHT22;3829;50.798;4.358;2022-12-18T06:25:47;-3.60;99.90
7576;DHT22;3829;50.798;4.358;2022-12-18T06:28:12;-3.60;99.90
7576;DHT22;3829;50.798;4.358;2022-12-18T06:30:38;-3.60;99.90
7576;DHT22;3829;50.798;4.358;2022-12-18T06:33:03;-3.60;99.90
7576;DHT22;3829;50.798;4.358;2022-12-18T06:35:29;-3.60;99.90
7576;DHT22;3829;50.798;4.358;2022-12-18T06:37:54;-3.60;99.90
7576;DHT22;3829;50.798;4.358;2022-12-18T06:40:20;-3.50;99.90
7576;DHT22;3829;50.798;4.358;2022-12-18T06:42:46;-3.50;99.90
7576;DHT22;3829;50.798;4.358;2022-12-18T06:45:11;-3.40;99.90
7576;DHT22;3829;50.798;4.358;2022-12-18T06:47:40;-3.40;99.90
7576;DHT22;3829;50.798;4.358;2022-12-18T06:50:06;-3.40;99.90
7576;DHT22;3829;50.798;4.358;2022-12-18T06:52:32;-3.30;99.90
7576;DHT22;3829;50.798;4.358;2022-12-18T06:54:58;-3.30;99.90
7576;DHT22;3829;50.798;4.358;2022-12-18T06:57:23;-3.30;99.90
7576;DHT22;3829;50.798;4.358;2022-12-18T06:59:49;-3.20;99.90
7576;DHT22;3829;50.798;4.358;2022-12-18T07:02:14;-3.30;99.90
7576;DHT22;3829;50.798;4.358;2022-12-18T07:04:40;-3.20;99.90
7576;DHT22;3829;50.798;4.358;2022-12-18T07:07:06;-3.20;99.90
7576;DHT22;3829;50.798;4.358;2022-12-18T07:09:31;-3.20;99.90
7576;DHT22;3829;50.798;4.358;2022-12-18T07:11:57;-3.10;99.90
7576;DHT22;3829;50.798;4.358;2022-12-18T07:14:22;-3.10;99.90
7576;DHT22;3829;50.798;4.358;2022-12-18T07:16:48;-3.00;99.90
7576;DHT22;3829;50.798;4.358;2022-12-18T07:19:14;-3.00;99.90
7576;DHT22;3829;50.798;4.358;2022-12-18T07:21:39;-3.00;99.90
7576;DHT22;3829;50.798;4.358;2022-12-18T07:24:05;-2.90;99.90
7576;DHT22;3829;50.798;4.358;2022-12-18T07:26:31;-2.90;99.90
7576;DHT22;3829;50.798;4.358;2022-12-18T07:28:57;-3.00;99.90
7576;DHT22;3829;50.798;4.358;2022-12-18T07:31:23;-3.00;99.90
7576;DHT22;3829;50.798;4.358;2022-12-18T07:33:50;-2.90;99.90
7576;DHT22;3829;50.798;4.358;2022-12-18T07:36:16;-2.90;99.90
7576;DHT22;3829;50.798;4.358;2022-12-18T07:38:42;-2.90;99.90
7576;DHT22;3829;50.798;4.358;2022-12-18T07:41:11;-3.00;99.90
7576;DHT22;3829;50.798;4.358;2022-12-18T07:43:37;-3.00;99.90
7576;DHT22;3829;50.798;4.358;2022-12-18T07:46:03;-3.00;99.90
7576;DHT22;3829;50.798;4.358;2022-12-18T07:48:30;-3.00;99.90
7576;DHT22;3829;50.798;4.358;2022-12-18T07:51:03;-3.00;99.90
7576;DHT22;3829;50.798;4.358;2022-12-18T07:53:29;-3.00;99.90
7576;DHT22;3829;50.798;4.358;2022-12-18T07:55:56;-3.00;99.90
7576;DHT22;3829;50.798;4.358;2022-12-18T07:58:22;-3.00;99.90
7576;DHT22;3829;50.798;4.358;2022-12-18T08:00:48;-2.90;99.90
7576;DHT22;3829;50.798;4.358;2022-12-18T08:03:13;-2.80;99.90
7576;DHT22;3829;50.798;4.358;2022-12-18T08:05:39;-2.70;99.90
7576;DHT22;3829;50.798;4.358;2022-12-18T08:08:05;-2.70;99.90
7576;DHT22;3829;50.798;4.358;2022-12-18T08:10:30;-2.70;99.90
7576;DHT22;3829;50.798;4.358;2022-12-18T08:12:56;-2.60;99.90
7576;DHT22;3829;50.798;4.358;2022-12-18T08:15:21;-2.60;99.90
7576;DHT22;3829;50.798;4.358;2022-12-18T08:17:47;-2.50;99.90
7576;DHT22;3829;50.798;4.358;2022-12-18T08:20:13;-2.50;99.90
7576;DHT22;3829;50.798;4.358;2022-12-18T08:22:43;-2.40;99.90
7576;DHT22;3829;50.798;4.358;2022-12-18T08:25:08;-2.40;99.90
7576;DHT22;3829;50.798;4.358;2022-12-18T08:27:34;-2.30;99.90
7576;DHT22;3829;50.798;4.358;2022-12-18T08:30:00;-2.30;99.90
7576;DHT22;3829;50.798;4.358;2022-12-18T08:32:27;-2.30;99.90
7576;DHT22;3829;50.798;4.358;2022-12-18T08:34:53;-2.10;99.90
7576;DHT22;3829;50.798;4.358;2022-12-18T08:37:19;-2.10;99.90
7576;DHT22;3829;50.798;4.358;2022-12-18T08:39:44;-2.00;99.90
7576;DHT22;3829;50.798;4.358;2022-12-18T08:42:10;-2.00;99.90
7576;DHT22;3829;50.798;4.358;2022-12-18T08:44:55;-2.10;99.90
7576;DHT22;3829;50.798;4.358;2022-12-18T08:47:20;-2.00;99.90
7576;DHT22;3829;50.798;4.358;2022-12-18T08:49:46;-2.00;99.90
7576;DHT22;3829;50.798;4.358;2022-12-18T08:52:11;-1.90;99.90
7576;DHT22;3829;50.798;4.358;2022-12-18T08:54:40;-1.80;99.90
7576;DHT22;3829;50.798;4.358;2022-12-18T08:57:05;-1.70;99.90
7576;DHT22;3829;50.798;4.358;2022-12-18T08:59:31;-1.70;99.90
7576;DHT22;3829;50.798;4.358;2022-12-18T09:01:56;-1.60;99.90
7576;DHT22;3829;50.798;4.358;2022-12-18T09:04:22;-1.60;99.90
7576;DHT22;3829;50.798;4.358;2022-12-18T09:06:48;-1.50;99.90
7576;DHT22;3829;50.798;4.358;2022-12-18T09:09:13;-1.50;99.90
7576;DHT22;3829;50.798;4.358;2022-12-18T09:11:39;-1.40;99.90
7576;DHT22;3829;50.798;4.358;2022-12-18T09:14:05;-1.40;99.90
7576;DHT22;3829;50.798;4.358;2022-12-18T09:16:31;-1.30;99.90
7576;DHT22;3829;50.798;4.358;2022-12-18T09:18:58;-1.20;99.90
7576;DHT22;3829;50.798;4.358;2022-12-18T09:21:29;-1.20;99.90
7576;DHT22;3829;50.798;4.358;2022-12-18T09:23:56;-1.10;99.90
7576;DHT22;3829;50.798;4.358;2022-12-18T09:26:23;-1.00;99.90
7576;DHT22;3829;50.798;4.358;2022-12-18T09:28:49;-1.00;99.90
7576;DHT22;3829;50.798;4.358;2022-12-18T09:31:17;-1.00;99.90
7576;DHT22;3829;50.798;4.358;2022-12-18T09:33:43;-1.00;99.90
7576;DHT22;3829;50.798;4.358;2022-12-18T09:36:12;-1.00;99.90
7576;DHT22;3829;50.798;4.358;2022-12-18T09:38:37;-1.00;99.90
7576;DHT22;3829;50.798;4.358;2022-12-18T09:41:14;-0.90;99.90
7576;DHT22;3829;50.798;4.358;2022-12-18T09:43:45;-0.90;99.90
7576;DHT22;3829;50.798;4.358;2022-12-18T09:46:17;-0.90;99.90
7576;DHT22;3829;50.798;4.358;2022-12-18T09:48:48;-0.80;99.90
7576;DHT22;3829;50.798;4.358;2022-12-18T09:51:18;-0.70;99.90
7576;DHT22;3829;50.798;4.358;2022-12-18T09:53:53;-0.60;99.90
7576;DHT22;3829;50.798;4.358;2022-12-18T09:56:21;-0.60;99.90
7576;DHT22;3829;50.798;4.358;2022-12-18T09:59:01;-0.50;99.90
7576;DHT22;3829;50.798;4.358;2022-12-18T10:01:29;-0.50;99.90
7576;DHT22;3829;50.798;4.358;2022-12-18T10:03:55;-0.50;99.90
7576;DHT22;3829;50.798;4.358;2022-12-18T10:06:29;-0.40;99.90
7576;DHT22;3829;50.798;4.358;2022-12-18T10:09:07;-0.30;99.90
7576;DHT22;3829;50.798;4.358;2022-12-18T10:12:02;-0.30;99.90
7576;DHT22;3829;50.798;4.358;2022-12-18T10:25:15;-0.10;99.90
7576;DHT22;3829;50.798;4.358;2022-12-18T10:27:42;0.00;99.90
7576;DHT22;3829;50.798;4.358;2022-12-18T10:30:13;0.00;99.90
7576;DHT22;3829;50.798;4.358;2022-12-18T10:32:39;0.20;99.90
7576;DHT22;3829;50.798;4.358;2022-12-18T10:35:15;0.20;99.90
7576;DHT22;3829;50.798;4.358;2022-12-18T10:38:00;0.30;99.90
7576;DHT22;3829;50.798;4.358;2022-12-18T10:40:26;0.40;99.90
7576;DHT22;3829;50.798;4.358;2022-12-18T10:43:05;0.50;99.90
7576;DHT22;3829;50.798;4.358;2022-12-18T10:45:35;0.50;99.90
7576;DHT22;3829;50.798;4.358;2022-12-18T10:48:01;0.70;99.90
7576;DHT22;3829;50.798;4.358;2022-12-18T10:50:35;0.80;99.90
7576;DHT22;3829;50.798;4.358;2022-12-18T10:53:04;0.70;99.90
7576;DHT22;3829;50.798;4.358;2022-12-18T10:55:37;0.70;99.90
7576;DHT22;3829;50.798;4.358;2022-12-18T10:58:21;0.60;99.90
7576;DHT22;3829;50.798;4.358;2022-12-18T11:01:10;0.70;99.90
7576;DHT22;3829;50.798;4.358;2022-12-18T11:06:12;0.90;99.90
7576;DHT22;3829;50.798;4.358;2022-12-18T11:08:38;0.90;99.90
7576;DHT22;3829;50.798;4.358;2022-12-18T11:11:15;0.90;99.90
7576;DHT22;3829;50.798;4.358;2022-12-18T11:14:13;0.90;99.90
7576;DHT22;3829;50.798;4.358;2022-12-18T11:16:43;1.00;99.90
7576;DHT22;3829;50.798;4.358;2022-12-18T11:19:34;1.10;99.90
7576;DHT22;3829;50.798;4.358;2022-12-18T11:27:19;1.30;99.90
7576;DHT22;3829;50.798;4.358;2022-12-18T11:29:45;1.40;99.90
7576;DHT22;3829;50.798;4.358;2022-12-18T11:32:32;1.40;99.90
7576;DHT22;3829;50.798;4.358;2022-12-18T11:35:21;1.30;99.90
7576;DHT22;3829;50.798;4.358;2022-12-18T11:37:56;1.50;99.90
7576;DHT22;3829;50.798;4.358;2022-12-18T11:40:33;1.50;99.90
7576;DHT22;3829;50.798;4.358;2022-12-18T11:45:47;1.80;99.90
7576;DHT22;3829;50.798;4.358;2022-12-18T11:48:22;1.80;99.90
7576;DHT22;3829;50.798;4.358;2022-12-18T11:50:57;1.90;99.90
7576;DHT22;3829;50.798;4.358;2022-12-18T11:53:27;1.90;99.90
7576;DHT22;3829;50.798;4.358;2022-12-18T11:56:38;2.00;99.90
7576;DHT22;3829;50.798;4.358;2022-12-18T12:02:28;2.00;99.90
7576;DHT22;3829;50.798;4.358;2022-12-18T12:05:03;2.00;99.90
7576;DHT22;3829;50.798;4.358;2022-12-18T12:07:49;2.00;99.90
7576;DHT22;3829;50.798;4.358;2022-12-18T12:10:56;2.00;99.90
7576;DHT22;3829;50.798;4.358;2022-12-18T12:21:40;2.10;99.90
7576;DHT22;3829;50.798;4.358;2022-12-18T12:24:55;2.20;99.90
7576;DHT22;3829;50.798;4.358;2022-12-18T12:30:03;2.10;99.90
7576;DHT22;3829;50.798;4.358;2022-12-18T12:40:23;2.00;99.90
7576;DHT22;3829;50.798;4.358;2022-12-18T12:42:55;1.90;99.90
7576;DHT22;3829;50.798;4.358;2022-12-18T12:46:13;2.00;99.90
7576;DHT22;3829;50.798;4.358;2022-12-18T12:48:47;2.00;99.90
7576;DHT22;3829;50.798;4.358;2022-12-18T12:51:18;2.10;99.90
7576;DHT22;3829;50.798;4.358;2022-12-18T12:53:45;2.00;99.90
7576;DHT22;3829;50.798;4.358;2022-12-18T12:56:13;2.00;99.90
7576;DHT22;3829;50.798;4.358;2022-12-18T13:01:37;2.10;99.90
7576;DHT22;3829;50.798;4.358;2022-12-18T13:10:28;1.80;99.90
7576;DHT22;3829;50.798;4.358;2022-12-18T13:18:23;1.70;99.90
7576;DHT22;3829;50.798;4.358;2022-12-18T13:28:18;1.50;99.90
7576;DHT22;3829;50.798;4.358;2022-12-18T13:36:26;1.70;99.90
7576;DHT22;3829;50.798;4.358;2022-12-18T13:39:10;1.70;99.90
7576;DHT22;3829;50.798;4.358;2022-12-18T13:41:36;1.70;99.90
7576;DHT22;3829;50.798;4.358;2022-12-18T13:44:28;1.80;99.90
7576;DHT22;3829;50.798;4.358;2022-12-18T13:46:56;1.80;99.90
7576;DHT22;3829;50.798;4.358;2022-12-18T13:49:51;1.80;99.90
7576;DHT22;3829;50.798;4.358;2022-12-18T13:52:22;1.90;99.90
7576;DHT22;3829;50.798;4.358;2022-12-18T13:55:00;1.70;99.90
7576;DHT22;3829;50.798;4.358;2022-12-18T13:57:37;1.70;99.90
7576;DHT22;3829;50.798;4.358;2022-12-18T14:02:48;1.70;99.90
7576;DHT22;3829;50.798;4.358;2022-12-18T14:05:25;1.80;99.90
7576;DHT22;3829;50.798;4.358;2022-12-18T14:07:52;1.70;99.90
7576;DHT22;3829;50.798;4.358;2022-12-18T14:10:18;1.80;99.90
7576;DHT22;3829;50.798;4.358;2022-12-18T14:12:48;1.90;99.90
7576;DHT22;3829;50.798;4.358;2022-12-18T14:17:57;1.70;99.90
7576;DHT22;3829;50.798;4.358;2022-12-18T14:20:25;1.60;99.90
7576;DHT22;3829;50.798;4.358;2022-12-18T14:22:51;1.60;99.90
7576;DHT22;3829;50.798;4.358;2022-12-18T14:25:22;1.70;99.90
7576;DHT22;3829;50.798;4.358;2022-12-18T14:28:01;1.80;99.90
7576;DHT22;3829;50.798;4.358;2022-12-18T14:30:31;1.80;99.90
7576;DHT22;3829;50.798;4.358;2022-12-18T14:33:22;1.60;99.90
7576;DHT22;3829;50.798;4.358;2022-12-18T14:36:02;1.60;99.90
7576;DHT22;3829;50.798;4.358;2022-12-18T14:38:40;1.70;99.90
7576;DHT22;3829;50.798;4.358;2022-12-18T14:41:10;1.70;99.90
7576;DHT22;3829;50.798;4.358;2022-12-18T14:43:38;1.70;99.90
7576;DHT22;3829;50.798;4.358;2022-12-18T14:46:06;1.60;99.90
7576;DHT22;3829;50.798;4.358;2022-12-18T14:48:50;1.60;99.90
7576;DHT22;3829;50.798;4.358;2022-12-18T14:51:21;1.60;99.90
7576;DHT22;3829;50.798;4.358;2022-12-18T14:53:59;1.50;99.90
7576;DHT22;3829;50.798;4.358;2022-12-18T14:56:34;1.50;99.90
7576;DHT22;3829;50.798;4.358;2022-12-18T14:59:12;1.60;99.90
7576;DHT22;3829;50.798;4.358;2022-12-18T15:02:29;1.60;99.90
7576;DHT22;3829;50.798;4.358;2022-12-18T15:07:18;1.60;99.90
7576;DHT22;3829;50.798;4.358;2022-12-18T15:10:03;1.60;99.90
7576;DHT22;3829;50.798;4.358;2022-12-18T15:12:41;1.70;99.90
7576;DHT22;3829;50.798;4.358;2022-12-18T15:20:43;1.40;99.90
7576;DHT22;3829;50.798;4.358;2022-12-18T15:23:21;1.40;99.90
7576;DHT22;3829;50.798;4.358;2022-12-18T15:25:58;1.50;99.90
7576;DHT22;3829;50.798;4.358;2022-12-18T15:28:44;1.50;99.90
7576;DHT22;3829;50.798;4.358;2022-12-18T15:33:42;1.40;99.90
7576;DHT22;3829;50.798;4.358;2022-12-18T15:36:14;1.40;99.90
7576;DHT22;3829;50.798;4.358;2022-12-18T15:38:41;1.40;99.90
7576;DHT22;3829;50.798;4.358;2022-12-18T15:41:14;1.40;99.90
7576;DHT22;3829;50.798;4.358;2022-12-18T15:43:40;1.40;99.90
7576;DHT22;3829;50.798;4.358;2022-12-18T15:46:14;1.40;99.90
7576;DHT22;3829;50.798;4.358;2022-12-18T15:48:44;1.50;99.90
7576;DHT22;3829;50.798;4.358;2022-12-18T15:51:29;1.50;99.90
7576;DHT22;3829;50.798;4.358;2022-12-18T15:53:59;1.40;99.90
7576;DHT22;3829;50.798;4.358;2022-12-18T15:56:25;1.30;99.90
7576;DHT22;3829;50.798;4.358;2022-12-18T15:59:14;1.40;99.90
7576;DHT22;3829;50.798;4.358;2022-12-18T16:01:41;1.40;99.90
7576;DHT22;3829;50.798;4.358;2022-12-18T16:04:13;1.40;99.90
7576;DHT22;3829;50.798;4.358;2022-12-18T16:06:39;1.40;99.90
7576;DHT22;3829;50.798;4.358;2022-12-18T16:09:05;1.40;99.90
7576;DHT22;3829;50.798;4.358;2022-12-18T16:11:33;1.40;99.90
7576;DHT22;3829;50.798;4.358;2022-12-18T16:14:26;1.40;99.90
7576;DHT22;3829;50.798;4.358;2022-12-18T16:16:59;1.40;99.90
7576;DHT22;3829;50.798;4.358;2022-12-18T16:19:27;1.40;99.90
7576;DHT22;3829;50.798;4.358;2022-12-18T16:21:55;1.40;99.90
7576;DHT22;3829;50.798;4.358;2022-12-18T16:24:26;1.50;99.90
7576;DHT22;3829;50.798;4.358;2022-12-18T16:26:53;1.50;99.90
7576;DHT22;3829;50.798;4.358;2022-12-18T16:29:20;1.50;99.90
7576;DHT22;3829;50.798;4.358;2022-12-18T16:31:53;1.50;99.90
7576;DHT22;3829;50.798;4.358;2022-12-18T16:36:54;1.70;99.90
7576;DHT22;3829;50.798;4.358;2022-12-18T16:39:20;1.70;99.90
7576;DHT22;3829;50.798;4.358;2022-12-18T16:41:46;1.70;99.90
7576;DHT22;3829;50.798;4.358;2022-12-18T16:44:13;1.70;99.90
7576;DHT22;3829;50.798;4.358;2022-12-18T16:46:39;1.60;99.90
7576;DHT22;3829;50.798;4.358;2022-12-18T16:49:08;1.60;99.90
7576;DHT22;3829;50.798;4.358;2022-12-18T16:51:34;1.60;99.90
7576;DHT22;3829;50.798;4.358;2022-12-18T16:53:59;1.60;99.90
7576;DHT22;3829;50.798;4.358;2022-12-18T16:56:25;1.70;99.90
7576;DHT22;3829;50.798;4.358;2022-12-18T16:58:55;1.70;99.90
7576;DHT22;3829;50.798;4.358;2022-12-18T17:01:21;1.80;99.90
7576;DHT22;3829;50.798;4.358;2022-12-18T17:03:55;1.70;99.90
7576;DHT22;3829;50.798;4.358;2022-12-18T17:06:22;1.70;99.90
7576;DHT22;3829;50.798;4.358;2022-12-18T17:08:54;1.80;99.90
7576;DHT22;3829;50.798;4.358;2022-12-18T17:11:21;1.80;99.90
7576;DHT22;3829;50.798;4.358;2022-12-18T17:13:46;1.90;99.90
7576;DHT22;3829;50.798;4.358;2022-12-18T17:16:12;2.00;99.90
7576;DHT22;3829;50.798;4.358;2022-12-18T17:18:38;2.00;99.90
7576;DHT22;3829;50.798;4.358;2022-12-18T17:21:05;1.90;99.90
7576;DHT22;3829;50.798;4.358;2022-12-18T17:23:33;1.90;99.90
7576;DHT22;3829;50.798;4.358;2022-12-18T17:25:59;1.90;99.90
7576;DHT22;3829;50.798;4.358;2022-12-18T17:28:26;1.80;99.90
7576;DHT22;3829;50.798;4.358;2022-12-18T17:30:52;1.80;99.90
7576;DHT22;3829;50.798;4.358;2022-12-18T17:33:18;1.70;99.90
7576;DHT22;3829;50.798;4.358;2022-12-18T17:35:44;1.70;99.90
7576;DHT22;3829;50.798;4.358;2022-12-18T17:38:09;1.70;99.90
7576;DHT22;3829;50.798;4.358;2022-12-18T17:40:35;1.70;99.90
7576;DHT22;3829;50.798;4.358;2022-12-18T17:43:01;1.60;99.90
7576;DHT22;3829;50.798;4.358;2022-12-18T17:45:26;1.60;99.90
7576;DHT22;3829;50.798;4.358;2022-12-18T17:47:52;1.60;99.90
7576;DHT22;3829;50.798;4.358;2022-12-18T17:50:18;1.60;99.90
7576;DHT22;3829;50.798;4.358;2022-12-18T17:52:44;1.60;99.90
7576;DHT22;3829;50.798;4.358;2022-12-18T17:55:10;1.60;99.90
7576;DHT22;3829;50.798;4.358;2022-12-18T17:57:35;1.60;99.90
7576;DHT22;3829;50.798;4.358;2022-12-18T18:00:03;1.50;99.90
7576;DHT22;3829;50.798;4.358;2022-12-18T18:02:29;1.50;99.90
7576;DHT22;3829;50.798;4.358;2022-12-18T18:04:54;1.40;99.90
7576;DHT22;3829;50.798;4.358;2022-12-18T18:07:20;1.40;99.90
7576;DHT22;3829;50.798;4.358;2022-12-18T18:09:46;1.30;99.90
7576;DHT22;3829;50.798;4.358;2022-12-18T18:12:11;1.30;99.90
7576;DHT22;3829;50.798;4.358;2022-12-18T18:14:56;1.30;99.90
7576;DHT22;3829;50.798;4.358;2022-12-18T18:17:21;1.20;99.90
7576;DHT22;3829;50.798;4.358;2022-12-18T18:19:47;1.20;99.90